createdAt,value
2022-07-30T00:02:20.715Z,19.40
2022-07-30T00:04:48.742Z,19.28
2022-07-30T00:07:16.588Z,19.38
2022-07-30T00:09:44.417Z,19.45
2022-07-30T00:12:13.591Z,19.36
2022-07-30T00:14:41.444Z,19.37
2022-07-30T00:17:09.547Z,19.21
2022-07-30T00:19:37.353Z,19.29
2022-07-30T00:22:05.194Z,19.41
2022-07-30T00:24:32.965Z,19.28
2022-07-30T00:27:01.084Z,19.42
2022-07-30T00:29:30.845Z,19.33
2022-07-30T00:31:58.663Z,19.24
2022-07-30T00:34:26.814Z,19.22
2022-07-30T00:36:54.652Z,19.04
2022-07-30T00:39:22.462Z,19.02
2022-07-30T00:41:59.207Z,18.88
2022-07-30T00:44:27.120Z,18.73
2022-07-30T00:46:56.776Z,18.69
2022-07-30T00:49:25.170Z,18.55
2022-07-30T00:51:53.355Z,18.53
2022-07-30T00:54:22.128Z,18.47
2022-07-30T00:56:50.194Z,18.40
2022-07-30T00:59:18.154Z,18.31
2022-07-30T01:01:46.103Z,18.35
2022-07-30T01:04:15.269Z,18.22
2022-07-30T01:06:43.044Z,18.24
2022-07-30T01:09:11.004Z,18.33
2022-07-30T01:11:41.092Z,18.29
2022-07-30T01:14:10.232Z,18.29
2022-07-30T01:16:41.557Z,18.27
2022-07-30T01:19:39.250Z,18.24
2022-07-30T01:22:13.458Z,18.09
2022-07-30T01:24:44.383Z,18.03
2022-07-30T01:27:19.730Z,18.02
2022-07-30T01:29:48.881Z,18.05
2022-07-30T01:32:19.697Z,17.97
2022-07-30T01:34:48.529Z,17.93
2022-07-30T01:37:17.844Z,17.96
2022-07-30T01:39:49.529Z,17.90
2022-07-30T01:42:20.329Z,17.92
2022-07-30T01:44:50.072Z,17.80
2022-07-30T01:47:19.823Z,17.67
2022-07-30T01:49:49.897Z,17.74
2022-07-30T01:52:19.696Z,17.58
2022-07-30T01:54:51.141Z,17.59
2022-07-30T01:57:22.068Z,17.59
2022-07-30T01:59:53.230Z,17.63
2022-07-30T02:02:21.230Z,17.57
2022-07-30T02:04:49.236Z,17.58
2022-07-30T02:07:24.002Z,17.72
2022-07-30T02:09:56.561Z,17.80
2022-07-30T02:12:29.809Z,17.77
2022-07-30T02:15:14.934Z,17.73
2022-07-30T02:17:46.612Z,17.73
2022-07-30T02:20:17.547Z,17.56
2022-07-30T02:22:48.159Z,17.46
2022-07-30T02:25:19.558Z,17.58
2022-07-30T02:27:53.771Z,17.46
2022-07-30T02:30:26.823Z,17.55
2022-07-30T02:33:00.316Z,17.48
2022-07-30T02:35:30.623Z,17.55
2022-07-30T02:38:00.845Z,17.38
2022-07-30T02:40:29.823Z,17.57
2022-07-30T02:43:01.313Z,17.45
2022-07-30T02:45:30.148Z,17.49
2022-07-30T02:48:01.862Z,17.42
2022-07-30T02:50:31.690Z,17.40
2022-07-30T02:53:01.615Z,17.40
2022-07-30T02:55:33.454Z,17.36
2022-07-30T02:58:05.153Z,17.16
2022-07-30T03:00:33.862Z,17.07
2022-07-30T03:03:03.376Z,17.19
2022-07-30T03:05:31.786Z,17.45
2022-07-30T03:08:01.209Z,17.29
2022-07-30T03:10:30.204Z,17.15
2022-07-30T03:12:59.818Z,17.30
2022-07-30T03:15:30.590Z,17.48
2022-07-30T03:18:00.203Z,17.32
2022-07-30T03:20:30.958Z,17.31
2022-07-30T03:23:02.337Z,17.17
2022-07-30T03:25:32.038Z,17.19
2022-07-30T03:28:03.766Z,17.13
2022-07-30T03:30:35.578Z,17.18
2022-07-30T03:33:03.810Z,16.96
2022-07-30T03:35:32.417Z,16.90
2022-07-30T03:38:01.399Z,17.02
2022-07-30T03:40:30.373Z,17.21
2022-07-30T03:42:58.947Z,17.13
2022-07-30T03:45:27.383Z,17.02
2022-07-30T03:47:57.377Z,16.86
2022-07-30T03:50:25.347Z,16.84
2022-07-30T03:52:53.628Z,17.00
2022-07-30T03:55:22.916Z,17.11
2022-07-30T03:57:51.025Z,17.13
2022-07-30T04:00:18.946Z,17.10
2022-07-30T04:02:48.146Z,16.89
2022-07-30T04:05:17.983Z,16.66
2022-07-30T04:07:45.741Z,16.50
2022-07-30T04:10:15.659Z,16.45
2022-07-30T04:12:43.935Z,16.56
2022-07-30T04:16:31.752Z,16.66
2022-07-30T04:18:04.428Z,16.84
2022-07-30T04:20:40.807Z,16.79
2022-07-30T04:23:10.444Z,16.78
2022-07-30T04:25:38.870Z,16.94
2022-07-30T04:28:07.265Z,17.01
2022-07-30T04:30:35.318Z,17.06
2022-07-30T04:33:04.248Z,16.90
2022-07-30T04:35:51.368Z,16.83
2022-07-30T04:38:20.583Z,16.75
2022-07-30T04:40:48.932Z,16.63
2022-07-30T04:43:16.803Z,16.54
2022-07-30T04:45:44.758Z,16.46
2022-07-30T04:48:12.623Z,16.68
2022-07-30T04:50:44.357Z,16.67
2022-07-30T04:53:12.556Z,16.64
2022-07-30T04:55:43.407Z,16.80
2022-07-30T04:58:13.221Z,16.87
2022-07-30T05:00:41.723Z,16.93
2022-07-30T05:03:12.769Z,17.14
2022-07-30T05:05:43.446Z,17.34
2022-07-30T05:08:13.513Z,17.51
2022-07-30T05:10:41.657Z,17.57
2022-07-30T05:13:12.305Z,17.70
2022-07-30T05:15:41.416Z,17.74
2022-07-30T05:18:09.607Z,17.79
2022-07-30T05:20:37.727Z,17.87
2022-07-30T05:23:08.108Z,17.95
2022-07-30T05:25:35.879Z,18.02
2022-07-30T05:28:03.697Z,18.23
2022-07-30T05:30:31.587Z,18.38
2022-07-30T05:32:59.461Z,18.44
2022-07-30T05:35:31.275Z,18.63
2022-07-30T05:38:00.101Z,18.86
2022-07-30T05:40:29.287Z,19.05
2022-07-30T05:42:57.215Z,19.15
2022-07-30T05:45:25.011Z,19.26
2022-07-30T05:47:52.766Z,19.26
2022-07-30T05:50:20.926Z,19.41
2022-07-30T05:52:48.957Z,19.39
2022-07-30T05:55:16.875Z,19.45
2022-07-30T05:57:45.985Z,19.48
2022-07-30T06:00:14.685Z,19.59
2022-07-30T06:02:42.511Z,19.65
2022-07-30T06:05:10.473Z,19.68
2022-07-30T06:07:38.195Z,19.58
2022-07-30T06:10:07.021Z,19.82
2022-07-30T06:12:34.856Z,19.98
2022-07-30T06:15:05.197Z,20.08
2022-07-30T06:17:41.279Z,20.35
2022-07-30T06:20:10.679Z,20.36
2022-07-30T06:22:38.534Z,20.39
2022-07-30T06:25:07.280Z,20.35
2022-07-30T06:27:39.593Z,20.35
2022-07-30T06:30:11.844Z,20.55
2022-07-30T06:32:39.626Z,20.64
2022-07-30T06:35:08.519Z,20.72
2022-07-30T06:38:06.223Z,20.81
2022-07-30T06:40:24.160Z,21.06
2022-07-30T06:42:51.912Z,21.35
2022-07-30T06:45:21.130Z,21.06
2022-07-30T06:47:49.046Z,21.24
2022-07-30T06:50:18.934Z,21.46
2022-07-30T06:52:47.200Z,21.71
2022-07-30T06:55:15.052Z,21.64
2022-07-30T06:57:42.858Z,21.64
2022-07-30T07:00:11.631Z,21.37
2022-07-30T07:02:42.574Z,21.48
2022-07-30T07:05:10.857Z,21.54
2022-07-30T07:07:43.227Z,21.54
2022-07-30T07:10:14.188Z,21.88
2022-07-30T07:12:41.946Z,21.87
2022-07-30T07:15:10.770Z,22.00
2022-07-30T07:17:40.383Z,21.74
2022-07-30T07:20:08.962Z,21.84
2022-07-30T07:22:36.752Z,22.11
2022-07-30T07:25:05.054Z,22.09
2022-07-30T07:27:32.831Z,22.24
2022-07-30T07:30:05.567Z,22.50
2022-07-30T07:32:34.430Z,22.61
2022-07-30T07:35:03.648Z,22.64
2022-07-30T07:37:31.487Z,22.83
2022-07-30T07:39:59.313Z,23.06
2022-07-30T07:42:27.108Z,23.09
2022-07-30T07:44:54.991Z,23.07
2022-07-30T07:47:22.767Z,23.21
2022-07-30T07:49:50.551Z,23.12
2022-07-30T07:52:19.893Z,23.33
2022-07-30T07:54:47.739Z,23.40
2022-07-30T07:57:15.595Z,23.61
2022-07-30T07:59:44.566Z,23.59
2022-07-30T08:02:12.575Z,24.00
2022-07-30T08:04:40.790Z,24.45
2022-07-30T08:07:08.598Z,24.57
2022-07-30T08:09:40.589Z,24.63
2022-07-30T08:12:12.825Z,24.86
2022-07-30T08:14:40.900Z,25.06
2022-07-30T08:17:09.570Z,24.59
2022-07-30T08:19:37.538Z,24.36
2022-07-30T08:22:05.365Z,24.50
2022-07-30T08:24:33.605Z,24.71
2022-07-30T08:27:03.487Z,24.16
2022-07-30T08:29:31.656Z,24.88
2022-07-30T08:31:59.729Z,24.95
2022-07-30T08:34:28.904Z,25.81
2022-07-30T08:36:56.863Z,26.18
2022-07-30T08:39:24.672Z,26.36
2022-07-30T08:41:52.688Z,25.82
2022-07-30T08:44:22.619Z,25.67
2022-07-30T08:46:53.057Z,25.27
2022-07-30T08:49:25.060Z,25.40
2022-07-30T08:51:53.252Z,24.84
2022-07-30T08:54:21.174Z,25.21
2022-07-30T08:56:50.386Z,24.67
2022-07-30T08:59:19.058Z,25.35
2022-07-30T09:01:49.778Z,24.93
2022-07-30T09:04:17.550Z,24.86
2022-07-30T09:06:45.838Z,24.56
2022-07-30T09:09:15.119Z,24.84
2022-07-30T09:11:43.106Z,25.48
2022-07-30T09:14:13.539Z,25.47
2022-07-30T09:16:42.152Z,25.36
2022-07-30T09:19:16.795Z,24.77
2022-07-30T09:21:56.730Z,24.71
2022-07-30T09:24:24.586Z,24.93
2022-07-30T09:26:58.340Z,24.74
2022-07-30T09:29:28.308Z,24.84
2022-07-30T09:31:57.689Z,25.40
2022-07-30T09:34:28.821Z,25.96
2022-07-30T09:36:58.170Z,26.13
2022-07-30T09:39:30.133Z,26.52
2022-07-30T09:41:58.316Z,26.15
2022-07-30T09:44:28.206Z,26.32
2022-07-30T09:46:56.570Z,26.55
2022-07-30T09:49:26.065Z,26.47
2022-07-30T09:51:57.512Z,26.61
2022-07-30T09:54:26.584Z,26.81
2022-07-30T09:57:22.747Z,26.01
2022-07-30T09:59:54.588Z,26.85
2022-07-30T10:02:29.604Z,26.86
2022-07-30T10:05:14.080Z,27.24
2022-07-30T10:07:52.069Z,27.85
2022-07-30T10:10:25.192Z,27.16
2022-07-30T10:12:57.942Z,27.09
2022-07-30T10:15:29.538Z,27.79
2022-07-30T10:17:58.081Z,27.38
2022-07-30T10:24:06.835Z,27.16
2022-07-30T10:26:35.981Z,27.07
2022-07-30T10:29:04.069Z,26.69
2022-07-30T10:31:47.041Z,26.58
2022-07-30T10:34:23.606Z,26.30
2022-07-30T10:36:58.590Z,26.27
2022-07-30T10:39:34.446Z,26.35
2022-07-30T10:42:17.915Z,26.26
2022-07-30T10:45:01.451Z,26.73
2022-07-30T10:47:34.465Z,26.69
2022-07-30T10:50:10.433Z,26.98
2022-07-30T10:52:53.174Z,26.80
2022-07-30T10:55:37.128Z,26.69
2022-07-30T10:58:08.056Z,26.66
2022-07-30T11:00:38.255Z,26.26
2022-07-30T11:03:18.115Z,26.82
2022-07-30T11:05:48.438Z,27.21
2022-07-30T11:08:36.283Z,27.62
2022-07-30T11:12:02.058Z,27.17
2022-07-30T11:14:15.458Z,26.98
2022-07-30T11:17:02.013Z,27.01
2022-07-30T11:19:53.182Z,26.77
2022-07-30T11:22:27.102Z,27.23
2022-07-30T11:24:55.286Z,27.73
2022-07-30T11:27:41.798Z,27.25
2022-07-30T11:30:34.158Z,27.85
2022-07-30T11:33:33.029Z,28.01
2022-07-30T11:36:12.684Z,28.22
2022-07-30T11:38:55.600Z,27.63
2022-07-30T11:41:24.243Z,27.70
2022-07-30T11:44:25.201Z,27.65
2022-07-30T11:46:54.409Z,27.91
2022-07-30T11:49:22.307Z,28.39
2022-07-30T11:51:50.884Z,28.72
2022-07-30T11:54:18.957Z,29.38
2022-07-30T11:56:50.914Z,29.38
2022-07-30T11:59:18.760Z,28.60
2022-07-30T12:01:51.522Z,28.70
2022-07-30T12:04:20.776Z,29.14
2022-07-30T12:06:50.079Z,28.62
2022-07-30T12:09:27.422Z,29.05
2022-07-30T12:11:55.694Z,28.50
2022-07-30T12:14:23.574Z,28.31
2022-07-30T12:16:52.747Z,28.60
2022-07-30T12:19:22.385Z,28.86
2022-07-30T12:21:53.343Z,29.37
2022-07-30T12:24:26.598Z,29.48
2022-07-30T12:27:05.895Z,29.14
2022-07-30T12:29:35.150Z,29.74
2022-07-30T12:32:03.249Z,29.91
2022-07-30T12:34:33.701Z,29.70
2022-07-30T12:37:09.764Z,29.32
2022-07-30T12:39:37.719Z,29.93
2022-07-30T12:42:05.813Z,30.00
2022-07-30T12:44:41.629Z,30.54
2022-07-30T12:47:21.563Z,30.56
2022-07-30T12:49:53.212Z,30.12
2022-07-30T12:52:28.119Z,29.93
2022-07-30T12:55:02.247Z,29.80
2022-07-30T12:57:50.401Z,29.66
2022-07-30T13:00:18.469Z,29.61
2022-07-30T13:02:46.366Z,29.43
2022-07-30T13:05:15.635Z,29.70
2022-07-30T13:08:01.179Z,29.82
2022-07-30T13:10:31.417Z,29.90
2022-07-30T13:12:59.690Z,28.91
2022-07-30T13:15:27.574Z,28.40
2022-07-30T13:17:55.377Z,29.14
2022-07-30T13:20:24.724Z,29.33
2022-07-30T13:22:52.735Z,29.79
2022-07-30T13:25:20.518Z,29.96
2022-07-30T13:27:48.514Z,29.62
2022-07-30T13:30:16.563Z,29.72
2022-07-30T13:32:44.298Z,30.17
2022-07-30T13:35:12.109Z,29.73
2022-07-30T13:37:41.255Z,30.01
2022-07-30T13:40:10.501Z,30.31
2022-07-30T13:42:38.405Z,30.10
2022-07-30T13:45:07.309Z,29.71
2022-07-30T13:47:35.648Z,30.33
2022-07-30T13:50:03.475Z,31.09
2022-07-30T13:52:31.249Z,34.32
2022-07-30T13:55:00.445Z,37.02
2022-07-30T13:57:28.266Z,38.43
2022-07-30T13:59:56.084Z,38.97
2022-07-30T14:02:23.874Z,39.19
2022-07-30T14:04:52.411Z,37.99
2022-07-30T14:07:20.416Z,39.83
2022-07-30T14:09:52.676Z,39.19
2022-07-30T14:12:25.457Z,37.19
2022-07-30T14:14:53.292Z,35.09
2022-07-30T14:17:21.107Z,34.55
2022-07-30T14:19:50.224Z,32.50
2022-07-30T14:22:20.410Z,32.26
2022-07-30T14:24:48.642Z,33.19
2022-07-30T14:27:18.300Z,36.57
2022-07-30T14:29:47.867Z,36.53
2022-07-30T14:32:15.663Z,35.68
2022-07-30T14:34:49.114Z,33.78
2022-07-30T14:37:17.653Z,33.91
2022-07-30T14:39:45.473Z,34.12
2022-07-30T14:42:13.309Z,34.84
2022-07-30T14:44:41.270Z,33.97
2022-07-30T14:47:10.710Z,33.52
2022-07-30T14:49:38.599Z,34.61
2022-07-30T14:52:06.850Z,36.68
2022-07-30T14:54:34.725Z,38.08
2022-07-30T14:57:02.904Z,35.34
2022-07-30T14:59:30.930Z,35.89
2022-07-30T15:01:58.792Z,35.57
2022-07-30T15:04:28.036Z,37.40
2022-07-30T15:06:55.883Z,37.96
2022-07-30T15:09:23.708Z,38.89
2022-07-30T15:12:09.309Z,39.11
2022-07-30T15:14:38.671Z,38.66
2022-07-30T15:17:08.008Z,39.08
2022-07-30T15:19:37.182Z,38.25
2022-07-30T15:22:14.138Z,38.48
2022-07-30T15:24:42.051Z,40.49
2022-07-30T15:27:09.874Z,41.25
2022-07-30T15:29:37.773Z,41.56
2022-07-30T15:32:06.189Z,43.23
2022-07-30T15:34:34.991Z,44.09
2022-07-30T15:37:05.405Z,40.12
2022-07-30T15:39:33.738Z,39.41
2022-07-30T15:42:02.215Z,37.05
2022-07-30T15:44:30.432Z,37.20
2022-07-30T15:46:58.444Z,36.00
2022-07-30T15:49:26.796Z,33.72
2022-07-30T15:51:55.018Z,32.25
2022-07-30T15:54:26.627Z,34.99
2022-07-30T15:57:00.808Z,39.13
2022-07-30T15:59:30.179Z,37.74
2022-07-30T16:01:58.313Z,37.12
2022-07-30T16:04:31.975Z,36.90
2022-07-30T16:07:00.964Z,36.74
2022-07-30T16:09:30.564Z,35.49
2022-07-30T16:11:58.758Z,35.46
2022-07-30T16:14:27.024Z,32.46
2022-07-30T16:16:54.855Z,30.63
2022-07-30T16:19:23.127Z,30.30
2022-07-30T16:21:51.017Z,29.57
2022-07-30T16:24:18.815Z,29.48
2022-07-30T16:26:47.973Z,28.77
2022-07-30T16:29:15.762Z,28.75
2022-07-30T16:31:43.819Z,28.62
2022-07-30T16:34:11.867Z,28.65
2022-07-30T16:36:39.866Z,28.34
2022-07-30T16:39:08.030Z,28.15
2022-07-30T16:41:36.328Z,28.09
2022-07-30T16:44:05.913Z,28.03
2022-07-30T16:46:33.733Z,27.81
2022-07-30T16:49:01.573Z,27.68
2022-07-30T16:51:29.369Z,27.68
2022-07-30T16:53:57.180Z,27.67
2022-07-30T16:56:25.174Z,27.87
2022-07-30T16:58:53.104Z,28.00
2022-07-30T17:01:22.246Z,28.03
2022-07-30T17:03:50.401Z,27.68
2022-07-30T17:06:18.266Z,27.74
2022-07-30T17:08:46.018Z,27.59
2022-07-30T17:11:47.692Z,27.57
2022-07-30T17:14:04.389Z,27.50
2022-07-30T17:16:33.834Z,27.48
2022-07-30T17:19:09.307Z,27.50
2022-07-30T17:21:38.018Z,27.52
2022-07-30T17:24:11.039Z,27.59
2022-07-30T17:26:40.296Z,27.53
2022-07-30T17:29:13.469Z,27.45
2022-07-30T17:31:44.223Z,27.50
2022-07-30T17:34:14.186Z,27.41
2022-07-30T17:36:47.021Z,27.27
2022-07-30T17:40:26.708Z,27.24
2022-07-30T17:42:10.341Z,27.18
2022-07-30T17:44:39.266Z,27.15
2022-07-30T17:47:14.009Z,27.12
2022-07-30T17:49:43.120Z,27.08
2022-07-30T17:52:11.454Z,27.00
2022-07-30T17:54:39.318Z,26.65
2022-07-30T17:57:07.195Z,26.48
2022-07-30T17:59:35.085Z,26.21
2022-07-30T18:02:04.296Z,26.20
2022-07-30T18:04:34.955Z,26.24
2022-07-30T18:07:03.434Z,26.09
2022-07-30T18:09:39.514Z,25.90
2022-07-30T18:12:09.330Z,25.83
2022-07-30T18:14:37.298Z,25.74
2022-07-30T18:17:05.257Z,25.56
2022-07-30T18:19:34.480Z,25.64
2022-07-30T18:22:03.159Z,25.64
2022-07-30T18:24:44.397Z,25.60
2022-07-30T18:27:13.188Z,25.53
2022-07-30T18:29:41.054Z,25.37
2022-07-30T18:32:09.581Z,25.22
2022-07-30T18:34:38.740Z,25.24
2022-07-30T18:37:06.633Z,25.16
2022-07-30T18:39:34.457Z,25.12
2022-07-30T18:42:03.475Z,25.10
2022-07-30T18:44:32.365Z,24.90
2022-07-30T18:47:00.505Z,24.70
2022-07-30T18:49:37.463Z,24.58
2022-07-30T18:52:08.255Z,24.46
2022-07-30T18:54:37.294Z,24.24
2022-07-30T18:57:05.797Z,24.11
2022-07-30T18:59:33.787Z,24.03
2022-07-30T19:02:02.252Z,23.97
2022-07-30T19:04:31.279Z,23.78
2022-07-30T19:06:59.081Z,23.80
2022-07-30T19:09:28.319Z,23.87
2022-07-30T19:11:56.056Z,23.84
2022-07-30T19:14:23.864Z,23.83
2022-07-30T19:16:54.759Z,23.68
2022-07-30T19:19:27.817Z,23.59
2022-07-30T19:21:55.949Z,23.56
2022-07-30T19:24:23.814Z,23.37
2022-07-30T19:26:57.019Z,23.20
2022-07-30T19:29:24.907Z,22.94
2022-07-30T19:31:52.732Z,22.88
2022-07-30T19:34:20.511Z,22.64
2022-07-30T19:36:48.323Z,22.58
2022-07-30T19:39:21.615Z,22.62
2022-07-30T19:41:51.088Z,22.60
2022-07-30T19:44:20.438Z,22.61
2022-07-30T19:46:51.614Z,22.56
2022-07-30T19:49:20.129Z,22.51
2022-07-30T19:52:17.757Z,22.32
2022-07-30T19:54:37.879Z,22.22
2022-07-30T19:57:05.788Z,22.19
2022-07-30T19:59:46.299Z,22.14
2022-07-30T20:02:23.363Z,22.19
2022-07-30T20:04:51.518Z,22.14
2022-07-30T20:07:19.351Z,22.06
2022-07-30T20:09:48.599Z,22.10
2022-07-30T20:12:17.242Z,21.98
2022-07-30T20:14:46.361Z,21.97
2022-07-30T20:17:14.581Z,22.12
2022-07-30T20:19:47.949Z,22.10
2022-07-30T20:22:17.041Z,22.03
2022-07-30T20:24:45.116Z,22.15
2022-07-30T20:27:37.252Z,22.21
2022-07-30T20:30:02.342Z,22.19
2022-07-30T20:32:30.149Z,22.14
2022-07-30T20:34:58.310Z,22.05
2022-07-30T20:37:27.377Z,22.07
2022-07-30T20:39:55.951Z,22.04
2022-07-30T20:42:24.209Z,21.98
2022-07-30T20:44:56.712Z,21.97
2022-07-30T20:47:38.330Z,21.86
2022-07-30T20:50:09.576Z,21.81
2022-07-30T20:52:39.339Z,21.77
2022-07-30T20:55:08.417Z,22.05
2022-07-30T20:57:57.301Z,22.19
2022-07-30T21:00:25.425Z,22.21
2022-07-30T21:02:54.636Z,22.20
2022-07-30T21:05:22.485Z,22.12
2022-07-30T21:07:56.349Z,22.15
2022-07-30T21:10:26.141Z,22.09
2022-07-30T21:12:58.404Z,22.18
2022-07-30T21:15:26.810Z,22.17
2022-07-30T21:18:01.975Z,22.04
2022-07-30T21:20:31.239Z,21.97
2022-07-30T21:23:04.600Z,21.96
2022-07-30T21:25:33.470Z,22.05
2022-07-30T21:28:02.737Z,22.11
2022-07-30T21:30:32.742Z,22.14
2022-07-30T21:33:02.118Z,22.04
2022-07-30T21:35:32.122Z,21.79
2022-07-30T21:38:00.405Z,21.64
2022-07-30T21:40:28.892Z,21.58
2022-07-30T21:42:57.254Z,21.46
2022-07-30T21:45:27.025Z,21.50
2022-07-30T21:48:09.349Z,21.52
2022-07-30T21:50:39.877Z,21.47
2022-07-30T21:53:08.615Z,21.39
2022-07-30T21:55:52.984Z,21.29
2022-07-30T21:58:25.859Z,21.25
2022-07-30T22:01:14.980Z,21.39
2022-07-30T22:04:02.955Z,21.36
2022-07-30T22:06:33.548Z,21.20
2022-07-30T22:09:03.452Z,21.25
2022-07-30T22:11:42.613Z,21.22
2022-07-30T22:14:13.251Z,21.21
2022-07-30T22:16:46.270Z,21.10
2022-07-30T22:19:16.291Z,21.14
2022-07-30T22:21:46.456Z,20.95
2022-07-30T22:24:29.114Z,20.79
2022-07-30T22:27:01.695Z,20.66
2022-07-30T22:29:41.555Z,20.71
2022-07-30T22:32:10.778Z,20.70
2022-07-30T22:34:40.132Z,20.55
2022-07-30T22:37:09.194Z,20.50
2022-07-30T22:39:51.515Z,20.33
2022-07-30T22:42:20.925Z,20.26
2022-07-30T22:44:52.851Z,20.14
2022-07-30T22:47:51.086Z,20.14
2022-07-30T22:50:11.625Z,19.93
2022-07-30T22:52:40.200Z,20.16
2022-07-30T22:55:22.293Z,20.09
2022-07-30T22:57:50.922Z,20.13
2022-07-30T23:00:27.087Z,20.26
2022-07-30T23:02:55.568Z,20.23
2022-07-30T23:05:26.250Z,20.03
2022-07-30T23:07:54.144Z,19.98
2022-07-30T23:10:22.958Z,19.97
2022-07-30T23:12:53.569Z,20.00
2022-07-30T23:15:22.347Z,19.87
2022-07-30T23:17:50.235Z,19.66
2022-07-30T23:20:21.234Z,19.80
2022-07-30T23:22:50.906Z,19.80
2022-07-30T23:25:19.127Z,19.76
2022-07-30T23:27:47.440Z,19.64
2022-07-30T23:30:16.787Z,19.60
2022-07-30T23:32:44.879Z,19.67
2022-07-30T23:35:12.683Z,19.75
2022-07-30T23:37:48.238Z,19.71
2022-07-30T23:40:19.290Z,19.73
2022-07-30T23:42:47.288Z,19.77
2022-07-30T23:45:15.460Z,19.83
2022-07-30T23:48:00.763Z,19.88
2022-07-30T23:50:30.214Z,19.96
2022-07-30T23:52:58.110Z,19.92
2022-07-30T23:55:27.830Z,19.74
2022-07-30T23:57:55.850Z,19.75
